13II weather

St Joseph Medical Center Heliport
Fort Wayne, Indiana, United States

Public forecast

Using degrees Fahrenheit for public forecast. Weather courtesy of forecast.io.

METAR (pilot weather report)

Closest report is Fort Wayne International Airport, 6.4 nm (11.8 km) SSW. Retrieved 2019/04/23 22:54 UTC (1 hour ago):

KFWA 232254Z 30007KT 10SM BKN230 12/07 A3001 RMK AO2 SLP162 T01170072

TAF (pilot weather forecast)

Closest forecast is Fort Wayne International Airport, 6.4 nm (11.8 km) SSW. Retrieved 2019/04/23 18:34 UTC (5 hours ago):

TAF KFWA 231732Z 2318/2418 32013G20KT P6SM FEW010 OVC016 FM232200 30011KT P6SM SCT020 FM240300 VRB03KT P6SM SKC